createdAt,value
2022-11-25T00:01:28.264Z,99.90
2022-11-25T00:04:14.423Z,99.90
2022-11-25T00:06:59.638Z,99.90
2022-11-25T00:09:45.130Z,99.90
2022-11-25T00:12:30.673Z,99.90
2022-11-25T00:15:16.258Z,99.90
2022-11-25T00:18:02.018Z,99.90
2022-11-25T00:20:47.395Z,99.90
2022-11-25T00:23:33.527Z,99.90
2022-11-25T00:26:20.256Z,99.90
2022-11-25T00:29:07.758Z,99.90
2022-11-25T00:31:53.032Z,99.90
2022-11-25T00:34:38.616Z,99.90
2022-11-25T00:37:23.985Z,99.90
2022-11-25T00:40:10.201Z,99.90
2022-11-25T00:43:14.098Z,99.90
2022-11-25T00:45:59.417Z,99.90
2022-11-25T00:48:45.014Z,99.90
2022-11-25T00:51:30.604Z,99.90
2022-11-25T00:54:16.092Z,99.90
2022-11-25T00:57:01.489Z,99.90
2022-11-25T00:59:47.503Z,99.90
2022-11-25T01:02:33.030Z,99.90
2022-11-25T01:05:18.522Z,99.90
2022-11-25T01:08:04.012Z,99.90
2022-11-25T01:10:49.276Z,99.90
2022-11-25T01:13:35.175Z,99.90
2022-11-25T01:16:21.344Z,99.90
2022-11-25T01:19:06.796Z,99.90
2022-11-25T01:21:52.179Z,99.90
2022-11-25T01:24:39.824Z,99.90
2022-11-25T01:27:25.226Z,99.90
2022-11-25T01:30:11.092Z,99.90
2022-11-25T01:32:56.625Z,99.90
2022-11-25T01:35:41.794Z,99.90
2022-11-25T01:38:27.300Z,99.90
2022-11-25T01:41:14.283Z,99.90
2022-11-25T01:44:17.827Z,99.90
2022-11-25T01:47:25.010Z,99.90
2022-11-25T01:50:12.447Z,99.90
2022-11-25T01:52:58.516Z,99.90
2022-11-25T01:55:53.856Z,99.90
2022-11-25T01:58:40.759Z,99.90
2022-11-25T02:01:26.818Z,99.90
2022-11-25T02:04:14.925Z,99.90
2022-11-25T02:07:09.677Z,99.90
2022-11-25T02:09:56.618Z,99.90
2022-11-25T02:12:43.885Z,99.90
2022-11-25T02:15:31.131Z,99.90
2022-11-25T02:18:16.388Z,99.90
2022-11-25T02:21:01.866Z,99.90
2022-11-25T02:23:59.045Z,99.90
2022-11-25T02:26:44.888Z,99.90
2022-11-25T02:29:30.589Z,99.90
2022-11-25T02:32:16.208Z,99.90
2022-11-25T02:35:01.687Z,99.90
2022-11-25T02:37:47.300Z,99.90
2022-11-25T02:40:37.475Z,99.90
2022-11-25T02:43:23.118Z,99.90
2022-11-25T02:46:11.398Z,99.90
2022-11-25T02:49:09.033Z,99.90
2022-11-25T02:51:55.288Z,99.90
2022-11-25T02:54:41.124Z,99.90
2022-11-25T02:57:26.298Z,99.90
2022-11-25T03:00:12.531Z,99.90
2022-11-25T03:02:58.177Z,99.90
2022-11-25T03:05:44.002Z,99.90
2022-11-25T03:08:29.567Z,99.90
2022-11-25T03:11:15.372Z,99.90
2022-11-25T03:14:00.929Z,99.90
2022-11-25T03:16:46.580Z,99.90
2022-11-25T03:19:32.348Z,99.90
2022-11-25T03:22:18.029Z,99.90
2022-11-25T03:25:03.783Z,99.90
2022-11-25T03:27:49.364Z,99.90
2022-11-25T03:30:34.749Z,99.90
2022-11-25T03:33:20.275Z,99.90
2022-11-25T03:36:06.144Z,99.90
2022-11-25T03:38:51.197Z,99.90
2022-11-25T03:41:36.857Z,99.90
2022-11-25T03:44:22.320Z,99.90
2022-11-25T03:47:07.920Z,99.90
2022-11-25T03:49:53.574Z,99.90
2022-11-25T03:52:39.675Z,99.90
2022-11-25T03:55:24.880Z,99.90
2022-11-25T03:58:10.370Z,99.90
2022-11-25T04:01:00.562Z,99.90
2022-11-25T04:03:46.019Z,99.90
2022-11-25T04:06:32.156Z,99.90
2022-11-25T04:09:17.543Z,99.90
2022-11-25T04:12:21.231Z,99.90
2022-11-25T04:15:06.968Z,99.90
2022-11-25T04:17:52.568Z,99.90
2022-11-25T04:20:38.119Z,99.90
2022-11-25T04:23:23.841Z,99.90
2022-11-25T04:26:09.941Z,99.90
2022-11-25T04:28:55.521Z,99.90
2022-11-25T04:31:41.067Z,99.90
2022-11-25T04:34:26.796Z,99.90
2022-11-25T04:37:12.031Z,99.90
2022-11-25T04:39:57.468Z,99.90
2022-11-25T04:42:43.000Z,99.90
2022-11-25T04:45:33.383Z,99.90
2022-11-25T04:48:30.841Z,99.90
2022-11-25T04:51:16.406Z,99.90
2022-11-25T04:54:01.614Z,99.90
2022-11-25T04:56:47.113Z,99.90
2022-11-25T04:59:41.841Z,99.90
2022-11-25T05:02:28.611Z,99.90
2022-11-25T05:05:14.028Z,99.90
2022-11-25T05:07:59.476Z,99.90
2022-11-25T05:10:45.103Z,99.90
2022-11-25T05:13:30.724Z,99.90
2022-11-25T05:16:16.207Z,99.90
2022-11-25T05:19:01.697Z,99.90
2022-11-25T05:21:47.353Z,99.90
2022-11-25T05:24:32.918Z,99.90
2022-11-25T05:27:19.382Z,99.90
2022-11-25T05:30:05.681Z,99.90
2022-11-25T05:32:51.083Z,99.90
2022-11-25T05:35:36.728Z,99.90
2022-11-25T05:38:22.271Z,99.90
2022-11-25T05:41:08.328Z,99.90
2022-11-25T05:43:53.852Z,99.90
2022-11-25T05:46:39.552Z,99.90
2022-11-25T05:49:25.279Z,99.90
2022-11-25T05:52:10.807Z,99.90
2022-11-25T05:54:57.580Z,99.90
2022-11-25T05:57:42.964Z,99.90
2022-11-25T06:04:29.107Z,99.90
2022-11-25T06:07:14.665Z,99.90
2022-11-25T06:10:03.078Z,99.90
2022-11-25T06:12:49.458Z,99.90
2022-11-25T06:15:35.386Z,99.90
2022-11-25T06:18:20.756Z,99.90
2022-11-25T06:21:07.583Z,99.90
2022-11-25T06:23:53.214Z,99.90
2022-11-25T06:26:38.839Z,99.90
2022-11-25T06:29:24.421Z,99.90
2022-11-25T06:32:10.095Z,99.90
2022-11-25T06:34:55.214Z,99.90
2022-11-25T06:37:41.287Z,99.90
2022-11-25T06:40:26.652Z,99.90
2022-11-25T06:43:12.191Z,99.90
2022-11-25T06:46:09.561Z,99.90
2022-11-25T06:48:54.921Z,99.90
2022-11-25T06:51:40.418Z,99.90
2022-11-25T06:54:25.893Z,99.90
2022-11-25T06:57:12.781Z,99.90
2022-11-25T06:59:58.405Z,99.90
2022-11-25T07:02:48.364Z,99.90
2022-11-25T07:05:34.486Z,99.90
2022-11-25T07:08:22.503Z,99.90
2022-11-25T07:11:13.918Z,99.90
2022-11-25T07:14:01.713Z,99.90
2022-11-25T07:16:47.435Z,99.90
2022-11-25T07:19:35.518Z,99.90
2022-11-25T07:22:21.111Z,99.90
2022-11-25T07:25:06.772Z,99.90
2022-11-25T07:27:52.457Z,99.90
2022-11-25T07:33:43.164Z,99.90
2022-11-25T07:36:29.420Z,99.90
2022-11-25T07:39:22.167Z,99.90
2022-11-25T07:42:07.516Z,99.90
2022-11-25T07:44:53.080Z,99.90
2022-11-25T07:47:38.847Z,99.90
2022-11-25T07:50:24.424Z,99.90
2022-11-25T07:53:09.985Z,99.90
2022-11-25T07:55:55.505Z,99.90
2022-11-25T07:58:45.889Z,99.90
2022-11-25T08:01:31.503Z,99.90
2022-11-25T08:04:20.375Z,99.90
2022-11-25T08:07:06.263Z,99.90
2022-11-25T08:09:51.767Z,99.90
2022-11-25T08:12:37.192Z,99.90
2022-11-25T08:15:22.352Z,99.90
2022-11-25T08:18:07.901Z,99.90
2022-11-25T08:20:58.231Z,99.90
2022-11-25T08:23:44.647Z,99.90
2022-11-25T08:26:33.994Z,99.90
2022-11-25T08:29:19.545Z,99.90
2022-11-25T08:32:10.300Z,99.90
2022-11-25T08:34:57.297Z,99.90
2022-11-25T08:37:42.622Z,99.90
2022-11-25T08:40:27.993Z,99.90
2022-11-25T08:43:13.505Z,99.90
2022-11-25T08:45:59.231Z,99.90
2022-11-25T08:48:44.809Z,99.90
2022-11-25T08:51:32.769Z,99.90
2022-11-25T08:54:18.725Z,99.90
2022-11-25T08:57:04.037Z,99.90
2022-11-25T08:59:49.336Z,99.90
2022-11-25T09:02:34.847Z,99.90
2022-11-25T09:05:20.379Z,99.90
2022-11-25T09:08:07.475Z,99.90
2022-11-25T09:10:53.130Z,99.90
2022-11-25T09:13:38.683Z,99.90
2022-11-25T09:16:26.589Z,99.90
2022-11-25T09:19:12.276Z,99.90
2022-11-25T09:21:57.764Z,99.90
2022-11-25T09:24:45.420Z,99.90
2022-11-25T09:27:32.102Z,99.90
2022-11-25T09:30:17.757Z,99.90
2022-11-25T09:33:03.085Z,99.90
2022-11-25T09:35:50.300Z,99.90
2022-11-25T09:38:41.688Z,99.90
2022-11-25T09:42:20.398Z,99.90
2022-11-25T09:45:30.376Z,99.90
2022-11-25T09:48:24.897Z,99.90
2022-11-25T09:51:17.233Z,99.90
2022-11-25T09:54:31.921Z,99.90
2022-11-25T09:57:56.389Z,99.90
2022-11-25T10:00:46.540Z,99.90
2022-11-25T10:03:39.272Z,99.90
2022-11-25T10:06:27.339Z,99.90
2022-11-25T10:09:15.737Z,99.90
2022-11-25T10:12:17.987Z,99.90
2022-11-25T10:15:12.616Z,99.90
2022-11-25T10:18:04.992Z,99.90
2022-11-25T10:20:52.530Z,99.90
2022-11-25T10:23:39.953Z,98.20
2022-11-25T10:26:34.696Z,97.60
2022-11-25T10:29:25.238Z,92.20
2022-11-25T10:32:26.046Z,91.00
2022-11-25T10:35:39.298Z,90.20
2022-11-25T10:38:35.539Z,84.20
2022-11-25T10:41:23.991Z,79.20
2022-11-25T10:44:33.782Z,75.30
2022-11-25T10:47:34.728Z,75.70
2022-11-25T10:50:29.553Z,70.20
2022-11-25T10:53:25.701Z,73.20
2022-11-25T10:56:18.852Z,77.50
2022-11-25T10:59:14.381Z,79.30
2022-11-25T11:02:21.279Z,79.60
2022-11-25T11:05:09.901Z,80.10
2022-11-25T11:08:12.656Z,80.10
2022-11-25T11:11:30.631Z,77.30
2022-11-25T11:14:20.401Z,79.50
2022-11-25T11:17:06.018Z,79.70
2022-11-25T11:20:14.397Z,77.10
2022-11-25T11:23:13.997Z,73.90
2022-11-25T11:26:02.582Z,74.30
2022-11-25T11:28:48.152Z,74.60
2022-11-25T11:31:39.420Z,78.20
2022-11-25T11:34:47.034Z,78.40
2022-11-25T11:37:47.323Z,83.90
2022-11-25T11:40:35.731Z,84.60
2022-11-25T11:43:46.556Z,83.00
2022-11-25T11:47:07.344Z,83.80
2022-11-25T11:50:31.073Z,82.00
2022-11-25T11:53:19.065Z,78.70
2022-11-25T11:59:42.591Z,72.30
2022-11-25T12:02:37.152Z,73.60
2022-11-25T12:05:27.324Z,73.10
2022-11-25T12:08:26.150Z,70.40
2022-11-25T12:11:17.387Z,72.20
2022-11-25T12:14:40.020Z,70.30
2022-11-25T12:17:41.553Z,68.00
2022-11-25T12:20:44.384Z,67.60
2022-11-25T12:24:04.108Z,67.30
2022-11-25T12:26:54.066Z,69.20
2022-11-25T12:29:50.292Z,67.30
2022-11-25T12:32:54.828Z,67.40
2022-11-25T12:36:04.846Z,67.80
2022-11-25T12:39:01.895Z,66.70
2022-11-25T12:42:01.770Z,67.50
2022-11-25T12:44:59.499Z,68.70
2022-11-25T12:47:45.381Z,70.40
2022-11-25T12:50:47.546Z,70.70
2022-11-25T12:53:41.599Z,74.00
2022-11-25T12:56:44.782Z,74.30
2022-11-25T12:59:33.270Z,77.40
2022-11-25T13:02:54.471Z,78.30
2022-11-25T13:06:25.445Z,78.90
2022-11-25T13:09:35.553Z,79.20
2022-11-25T13:12:32.002Z,81.00
2022-11-25T13:15:31.766Z,78.90
2022-11-25T13:18:20.314Z,81.90
2022-11-25T13:21:10.759Z,82.70
2022-11-25T13:23:59.216Z,80.60
2022-11-25T13:26:49.322Z,79.40
2022-11-25T13:29:43.983Z,79.50
2022-11-25T13:32:31.383Z,81.00
2022-11-25T13:35:22.718Z,77.60
2022-11-25T13:38:29.152Z,73.60
2022-11-25T13:41:20.441Z,78.30
2022-11-25T13:44:20.891Z,80.50
2022-11-25T13:47:40.940Z,79.30
2022-11-25T13:50:42.021Z,77.90
2022-11-25T13:53:35.754Z,78.10
2022-11-25T13:56:21.147Z,77.80
2022-11-25T13:59:15.546Z,77.40
2022-11-25T14:02:28.928Z,77.20
2022-11-25T14:05:42.212Z,75.50
2022-11-25T14:08:44.727Z,76.30
2022-11-25T14:11:59.540Z,75.90
2022-11-25T14:15:12.519Z,75.80
2022-11-25T14:18:42.976Z,75.60
2022-11-25T14:22:03.371Z,76.10
2022-11-25T14:24:53.160Z,76.00
2022-11-25T14:27:39.249Z,76.10
2022-11-25T14:30:25.976Z,76.10
2022-11-25T14:33:17.360Z,75.80
2022-11-25T14:36:12.864Z,76.00
2022-11-25T14:39:06.046Z,76.20
2022-11-25T14:42:03.928Z,76.20
2022-11-25T14:44:51.149Z,77.20
2022-11-25T14:47:39.429Z,77.40
2022-11-25T14:50:40.643Z,78.80
2022-11-25T14:53:27.809Z,78.60
2022-11-25T14:56:28.986Z,79.40
2022-11-25T14:59:15.169Z,79.20
2022-11-25T15:02:00.631Z,79.90
2022-11-25T15:04:45.956Z,79.60
2022-11-25T15:07:32.391Z,79.50
2022-11-25T15:10:56.528Z,79.90
2022-11-25T15:13:47.754Z,79.70
2022-11-25T15:16:36.927Z,78.70
2022-11-25T15:19:29.233Z,79.30
2022-11-25T15:22:23.566Z,78.50
2022-11-25T15:25:15.005Z,80.00
2022-11-25T15:28:00.392Z,80.80
2022-11-25T15:31:18.471Z,81.60
2022-11-25T15:34:06.992Z,85.60
2022-11-25T15:36:54.454Z,85.90
2022-11-25T15:39:40.260Z,86.00
2022-11-25T15:42:28.398Z,87.90
2022-11-25T15:45:21.418Z,92.00
2022-11-25T15:48:07.159Z,95.70
2022-11-25T15:50:52.884Z,99.90
2022-11-25T15:53:39.252Z,99.90
2022-11-25T15:56:27.041Z,99.90
2022-11-25T15:59:50.246Z,99.90
2022-11-25T16:02:41.885Z,99.90
2022-11-25T16:05:27.129Z,99.90
2022-11-25T16:08:33.691Z,99.90
2022-11-25T16:11:20.022Z,99.90
2022-11-25T16:14:23.727Z,99.90
2022-11-25T16:17:12.611Z,99.90
2022-11-25T16:19:57.874Z,99.90
2022-11-25T16:22:43.492Z,99.90
2022-11-25T16:25:28.734Z,99.90
2022-11-25T16:28:32.691Z,99.90
2022-11-25T16:31:18.369Z,99.90
2022-11-25T16:34:19.142Z,99.90
2022-11-25T16:37:04.777Z,99.90
2022-11-25T16:39:50.123Z,99.90
2022-11-25T16:42:35.722Z,99.90
2022-11-25T16:45:27.261Z,99.90
2022-11-25T16:48:17.479Z,99.90
2022-11-25T16:51:03.220Z,99.90
2022-11-25T16:53:48.466Z,99.90
2022-11-25T16:56:37.191Z,99.90
2022-11-25T16:59:30.345Z,99.90
2022-11-25T17:02:21.900Z,99.90
2022-11-25T17:05:17.890Z,99.90
2022-11-25T17:08:03.589Z,99.90
2022-11-25T17:10:49.707Z,99.90
2022-11-25T17:13:38.096Z,99.90
2022-11-25T17:16:26.341Z,99.90
2022-11-25T17:19:16.051Z,99.90
2022-11-25T17:22:01.569Z,99.90
2022-11-25T17:24:47.009Z,99.90
2022-11-25T17:27:33.378Z,99.90
2022-11-25T17:30:22.971Z,99.90
2022-11-25T17:33:14.192Z,99.90
2022-11-25T17:35:59.504Z,99.90
2022-11-25T17:38:44.981Z,99.90
2022-11-25T17:41:33.179Z,99.90
2022-11-25T17:44:23.622Z,99.90
2022-11-25T17:47:14.832Z,99.90
2022-11-25T17:50:00.473Z,99.90
2022-11-25T17:52:45.812Z,99.90
2022-11-25T17:55:32.419Z,99.90
2022-11-25T17:58:19.242Z,99.90
2022-11-25T18:01:04.943Z,99.90
2022-11-25T18:03:52.981Z,99.90
2022-11-25T18:06:38.520Z,99.90
2022-11-25T18:09:23.981Z,99.90
2022-11-25T18:12:39.243Z,99.90
2022-11-25T18:15:28.526Z,99.90
2022-11-25T18:18:21.656Z,99.90
2022-11-25T18:21:07.017Z,99.90
2022-11-25T18:23:53.634Z,99.90
2022-11-25T18:26:50.550Z,99.90
2022-11-25T18:29:36.333Z,99.90
2022-11-25T18:32:23.452Z,99.90
2022-11-25T18:35:19.239Z,99.90
2022-11-25T18:38:05.933Z,99.90
2022-11-25T18:40:53.841Z,99.90
2022-11-25T18:43:39.706Z,99.90
2022-11-25T18:46:25.479Z,99.90
2022-11-25T18:49:14.514Z,99.90
2022-11-25T18:51:59.765Z,99.90
2022-11-25T18:54:45.440Z,99.90
2022-11-25T18:57:31.074Z,99.90
2022-11-25T19:00:36.238Z,99.90
2022-11-25T19:03:25.221Z,99.90
2022-11-25T19:06:15.317Z,99.90
2022-11-25T19:09:00.709Z,99.90
2022-11-25T19:11:51.234Z,99.90
2022-11-25T19:14:41.944Z,99.90
2022-11-25T19:17:28.257Z,99.90
2022-11-25T19:20:19.116Z,99.90
2022-11-25T19:23:30.919Z,99.90
2022-11-25T19:26:39.266Z,99.90
2022-11-25T19:29:41.565Z,99.90
2022-11-25T19:32:29.473Z,99.90
2022-11-25T19:35:23.405Z,99.90
2022-11-25T19:38:21.472Z,99.90
2022-11-25T19:41:08.438Z,99.90
2022-11-25T19:43:53.588Z,99.90
2022-11-25T19:47:12.999Z,99.90
2022-11-25T19:49:51.092Z,99.90
2022-11-25T19:52:39.254Z,99.90
2022-11-25T19:55:30.370Z,99.90
2022-11-25T19:58:15.740Z,99.90
2022-11-25T20:01:04.365Z,99.90
2022-11-25T20:03:51.179Z,99.90
2022-11-25T20:06:36.832Z,99.90
2022-11-25T20:09:22.449Z,99.90
2022-11-25T20:12:20.459Z,99.90
2022-11-25T20:15:07.418Z,99.90
2022-11-25T20:17:57.767Z,99.90
2022-11-25T20:20:44.332Z,99.90
2022-11-25T20:23:43.274Z,99.90
2022-11-25T20:26:37.241Z,99.90
2022-11-25T20:29:27.520Z,99.90
2022-11-25T20:32:36.197Z,99.90
2022-11-25T20:35:23.004Z,99.90
2022-11-25T20:38:23.589Z,99.90
2022-11-25T20:41:11.771Z,99.90
2022-11-25T20:43:58.140Z,99.90
2022-11-25T20:46:43.616Z,99.90
2022-11-25T20:49:29.419Z,99.90
2022-11-25T20:52:28.277Z,99.90
2022-11-25T20:55:24.798Z,99.90
2022-11-25T20:58:24.138Z,99.90
2022-11-25T21:01:10.089Z,99.90
2022-11-25T21:03:55.741Z,99.90
2022-11-25T21:06:41.452Z,99.90
2022-11-25T21:09:32.626Z,99.90
2022-11-25T21:12:19.687Z,99.90
2022-11-25T21:15:16.117Z,99.90
2022-11-25T21:18:01.446Z,99.90
2022-11-25T21:20:49.238Z,99.90
2022-11-25T21:23:37.811Z,99.90
2022-11-25T21:26:26.253Z,99.90
2022-11-25T21:29:16.777Z,99.90
2022-11-25T21:32:02.320Z,99.90
2022-11-25T21:34:47.470Z,99.90
2022-11-25T21:37:36.416Z,99.90
2022-11-25T21:40:28.084Z,99.90
2022-11-25T21:43:23.988Z,99.90
2022-11-25T21:46:14.203Z,99.90
2022-11-25T21:48:59.792Z,99.90
2022-11-25T21:51:45.224Z,99.90
2022-11-25T21:54:30.744Z,99.90
2022-11-25T21:57:27.848Z,99.90
2022-11-25T22:00:20.672Z,99.90
2022-11-25T22:03:17.120Z,99.90
2022-11-25T22:06:02.401Z,99.90
2022-11-25T22:08:48.055Z,99.90
2022-11-25T22:11:36.894Z,99.90
2022-11-25T22:14:34.493Z,99.90
2022-11-25T22:17:20.726Z,99.90
2022-11-25T22:20:20.330Z,99.90
2022-11-25T22:23:16.012Z,99.90
2022-11-25T22:26:03.700Z,99.90
2022-11-25T22:28:51.602Z,99.90
2022-11-25T22:31:36.851Z,99.90
2022-11-25T22:34:24.369Z,99.90
2022-11-25T22:37:22.058Z,99.90
2022-11-25T22:40:08.368Z,99.90
2022-11-25T22:42:55.569Z,99.90
2022-11-25T22:45:40.764Z,99.90
2022-11-25T22:48:33.410Z,99.90
2022-11-25T22:51:25.515Z,99.90
2022-11-25T22:54:12.087Z,99.90
2022-11-25T22:56:58.201Z,99.90
2022-11-25T22:59:44.269Z,99.90
2022-11-25T23:02:33.623Z,99.90
2022-11-25T23:05:33.357Z,99.90
2022-11-25T23:08:22.144Z,99.90
2022-11-25T23:11:15.978Z,99.90
2022-11-25T23:14:01.490Z,99.90
2022-11-25T23:16:46.974Z,99.90
2022-11-25T23:19:33.076Z,99.90
2022-11-25T23:22:18.945Z,99.90
2022-11-25T23:25:17.911Z,99.90
2022-11-25T23:28:03.443Z,99.90
2022-11-25T23:30:51.921Z,99.90
2022-11-25T23:33:43.469Z,99.90
2022-11-25T23:36:38.873Z,99.90
2022-11-25T23:39:26.401Z,99.90
2022-11-25T23:42:19.513Z,99.90
2022-11-25T23:45:07.297Z,99.90
2022-11-25T23:47:54.467Z,99.90
2022-11-25T23:50:40.773Z,99.90
2022-11-25T23:53:32.791Z,99.90
2022-11-25T23:56:18.308Z,99.90
2022-11-25T23:59:03.687Z,99.90
